Time;durP1;ratioP1;P1;durP2;ratioP2;P2;SDS_P1;SDS_P2;PMS_P1;PMS_P2;Temp;Humidity;BMP_temperature;BMP_pressure;BME280_temperature;BME280_humidity;BME280_pressure;Samples;Min_cycle;Max_cycle;Signal;HPM_P1;HPM_P2
2021/08/02 00:02:21;;;;;;;;;;;15.00;99.90;;;;;;5147592;27;19946;-87
2021/08/02 00:04:50;;;;;;;;;;;15.00;99.90;;;;;;5129518;27;19919;-88
2021/08/02 00:07:18;;;;;;;;;;;15.00;99.90;;;;;;5129148;27;19949;-87
2021/08/02 00:09:44;;;;;;;;;;;15.00;99.90;;;;;;5096001;27;19950;-87
2021/08/02 00:12:11;;;;;;;;;;;15.00;99.90;;;;;;5113268;27;19919;-87
2021/08/02 00:14:39;;;;;;;;;;;15.00;99.90;;;;;;5129607;27;20402;-87
2021/08/02 00:17:05;;;;;;;;;;;15.00;99.90;;;;;;5147974;27;19926;-86
2021/08/02 00:19:31;;;;;;;;;;;15.10;99.90;;;;;;5129775;27;20302;-87
2021/08/02 00:21:57;;;;;;;;;;;15.00;99.90;;;;;;5146694;27;20453;-87
2021/08/02 00:24:24;;;;;;;;;;;15.00;99.90;;;;;;5129232;27;19915;-87
2021/08/02 00:26:50;;;;;;;;;;;15.10;99.90;;;;;;5129209;27;19927;-87
2021/08/02 00:29:15;;;;;;;;;;;15.00;99.90;;;;;;5147800;27;19923;-87
2021/08/02 00:31:41;;;;;;;;;;;15.00;99.90;;;;;;5128833;27;19946;-87
2021/08/02 00:34:07;;;;;;;;;;;15.00;99.90;;;;;;5128637;27;19976;-87
2021/08/02 00:36:36;;;;;;;;;;;15.00;99.90;;;;;;5129102;27;19926;-87
2021/08/02 00:39:04;;;;;;;;;;;14.90;99.90;;;;;;5129152;27;19977;-87
2021/08/02 00:41:48;;;;;;;;;;;15.00;99.90;;;;;;5147228;27;19919;-87
2021/08/02 00:44:19;;;;;;;;;;;14.90;99.90;;;;;;5128683;27;19931;-87
2021/08/02 00:46:48;;;;;;;;;;;14.90;99.90;;;;;;5147922;27;19989;-87
2021/08/02 00:49:15;;;;;;;;;;;15.00;99.90;;;;;;5128677;27;19983;-87
2021/08/02 00:51:50;;;;;;;;;;;14.90;99.90;;;;;;5128130;27;19962;-88
2021/08/02 00:54:18;;;;;;;;;;;14.80;99.90;;;;;;5146637;27;20417;-86
2021/08/02 00:56:46;;;;;;;;;;;14.80;99.90;;;;;;5147459;27;20370;-87
2021/08/02 00:59:12;;;;;;;;;;;14.80;99.90;;;;;;5147431;27;19930;-87
2021/08/02 01:01:37;;;;;;;;;;;14.80;99.90;;;;;;5114631;27;20014;-87
2021/08/02 01:04:04;;;;;;;;;;;14.80;99.90;;;;;;5128150;27;20038;-87
2021/08/02 01:06:30;;;;;;;;;;;14.80;99.90;;;;;;5128361;27;19926;-87
2021/08/02 01:09:00;;;;;;;;;;;14.70;99.90;;;;;;5147289;27;20498;-88
2021/08/02 01:11:27;;;;;;;;;;;14.70;99.90;;;;;;5128588;27;19936;-87
2021/08/02 01:13:53;;;;;;;;;;;14.60;99.90;;;;;;5147890;27;19919;-87
2021/08/02 01:16:19;;;;;;;;;;;14.60;99.90;;;;;;5132381;27;20466;-87
2021/08/02 01:18:47;;;;;;;;;;;14.60;99.90;;;;;;5153289;27;19971;-87
2021/08/02 01:21:13;;;;;;;;;;;14.60;99.90;;;;;;5153711;27;20042;-87
2021/08/02 01:23:39;;;;;;;;;;;14.50;99.90;;;;;;5171819;27;20297;-87
2021/08/02 01:26:04;;;;;;;;;;;14.50;99.90;;;;;;5153600;27;20025;-87
2021/08/02 01:28:30;;;;;;;;;;;14.50;99.90;;;;;;5153467;27;19923;-87
2021/08/02 01:31:00;;;;;;;;;;;14.40;99.90;;;;;;5171886;27;19933;-87
2021/08/02 01:33:30;;;;;;;;;;;14.40;99.90;;;;;;5135812;27;19915;-87
2021/08/02 01:36:00;;;;;;;;;;;14.40;99.90;;;;;;5171905;27;19926;-87
2021/08/02 01:38:27;;;;;;;;;;;14.30;99.90;;;;;;5135969;27;20371;-87
2021/08/02 01:40:53;;;;;;;;;;;14.30;99.90;;;;;;5171907;27;20364;-87
2021/08/02 01:43:18;;;;;;;;;;;14.30;99.90;;;;;;5153206;27;19926;-88
2021/08/02 01:45:47;;;;;;;;;;;14.30;99.90;;;;;;5152604;27;19963;-87
2021/08/02 01:48:24;;;;;;;;;;;14.20;99.90;;;;;;5136339;27;20230;-87
2021/08/02 01:51:04;;;;;;;;;;;14.20;99.90;;;;;;5133933;27;19931;-87
2021/08/02 01:53:39;;;;;;;;;;;14.20;99.90;;;;;;5132366;27;19999;-87
2021/08/02 01:56:06;;;;;;;;;;;14.10;99.90;;;;;;5131711;27;19929;-87
2021/08/02 01:58:36;;;;;;;;;;;14.10;99.90;;;;;;5150676;27;20278;-87
2021/08/02 02:01:02;;;;;;;;;;;14.10;99.90;;;;;;5150734;27;20026;-87
2021/08/02 02:03:28;;;;;;;;;;;14.10;99.90;;;;;;5132121;27;19927;-87
2021/08/02 02:05:59;;;;;;;;;;;14.10;99.90;;;;;;5131085;27;19919;-87
2021/08/02 02:08:30;;;;;;;;;;;14.10;99.90;;;;;;5150436;27;19919;-85
2021/08/02 02:10:57;;;;;;;;;;;14.10;99.90;;;;;;5150249;27;19927;-87
2021/08/02 02:13:31;;;;;;;;;;;14.10;99.90;;;;;;5131825;27;20302;-88
2021/08/02 02:15:57;;;;;;;;;;;14.10;99.90;;;;;;5131386;27;19975;-87
2021/08/02 02:18:24;;;;;;;;;;;14.10;99.90;;;;;;5150303;27;19919;-88
2021/08/02 02:20:50;;;;;;;;;;;14.20;99.90;;;;;;5131554;27;19923;-87
2021/08/02 02:23:16;;;;;;;;;;;14.20;99.90;;;;;;5114780;27;19930;-87
2021/08/02 02:25:42;;;;;;;;;;;14.30;99.90;;;;;;5130789;27;20290;-86
2021/08/02 02:28:08;;;;;;;;;;;14.30;99.90;;;;;;5130677;27;19953;-87
2021/08/02 02:30:34;;;;;;;;;;;14.30;99.90;;;;;;5131310;27;19991;-87
2021/08/02 02:32:59;;;;;;;;;;;14.30;99.90;;;;;;5114288;27;20309;-87
2021/08/02 02:35:26;;;;;;;;;;;14.30;99.90;;;;;;5113255;27;19919;-87
2021/08/02 02:37:52;;;;;;;;;;;14.30;99.90;;;;;;5131196;27;19922;-87
2021/08/02 02:40:19;;;;;;;;;;;14.30;99.90;;;;;;5130576;27;19971;-87
2021/08/02 02:42:45;;;;;;;;;;;14.30;99.90;;;;;;5130939;27;19926;-87
2021/08/02 02:45:11;;;;;;;;;;;14.20;99.90;;;;;;5131485;27;19919;-87
2021/08/02 02:47:37;;;;;;;;;;;14.20;99.90;;;;;;5113519;27;19926;-87
2021/08/02 02:50:05;;;;;;;;;;;14.20;99.90;;;;;;5149161;27;19923;-87
2021/08/02 02:52:31;;;;;;;;;;;14.20;99.90;;;;;;5162900;27;19930;-87
2021/08/02 02:54:58;;;;;;;;;;;14.20;99.90;;;;;;5151878;27;20009;-88
2021/08/02 02:57:24;;;;;;;;;;;14.20;99.90;;;;;;5169842;27;20230;-87
2021/08/02 02:59:49;;;;;;;;;;;14.20;99.90;;;;;;5170427;27;19933;-87
2021/08/02 03:02:15;;;;;;;;;;;14.20;99.90;;;;;;5151650;27;19919;-88
2021/08/02 03:04:44;;;;;;;;;;;14.10;99.90;;;;;;5170735;27;19919;-88
2021/08/02 03:07:10;;;;;;;;;;;14.00;99.90;;;;;;5150805;27;20416;-88
2021/08/02 03:09:37;;;;;;;;;;;14.00;99.90;;;;;;5117676;27;19923;-87
2021/08/02 03:12:03;;;;;;;;;;;14.00;99.90;;;;;;5134482;27;19922;-87
2021/08/02 03:14:29;;;;;;;;;;;14.00;99.90;;;;;;5170555;27;19923;-89
2021/08/02 03:16:55;;;;;;;;;;;13.90;99.90;;;;;;5151069;27;19922;-87
2021/08/02 03:19:21;;;;;;;;;;;13.90;99.90;;;;;;5133994;27;19944;-87
2021/08/02 03:21:46;;;;;;;;;;;13.90;99.90;;;;;;5169221;27;19991;-87
2021/08/02 03:24:20;;;;;;;;;;;13.80;99.90;;;;;;5151515;27;19923;-87
2021/08/02 03:26:49;;;;;;;;;;;13.80;99.90;;;;;;5150870;27;19923;-86
2021/08/02 03:29:19;;;;;;;;;;;13.70;99.90;;;;;;5150756;27;20013;-86
2021/08/02 03:31:54;;;;;;;;;;;13.80;99.90;;;;;;5169654;27;19989;-86
2021/08/02 03:34:23;;;;;;;;;;;13.80;99.90;;;;;;5169289;27;19919;-87
2021/08/02 03:36:49;;;;;;;;;;;13.80;99.90;;;;;;5144357;27;19923;-87
2021/08/02 03:39:16;;;;;;;;;;;13.80;99.90;;;;;;5129573;27;19954;-86
2021/08/02 03:41:42;;;;;;;;;;;13.80;99.90;;;;;;5130038;27;20018;-87
2021/08/02 03:44:10;;;;;;;;;;;13.80;99.90;;;;;;5129411;27;19919;-87
2021/08/02 03:46:36;;;;;;;;;;;13.80;99.90;;;;;;5167580;27;19927;-87
2021/08/02 03:49:02;;;;;;;;;;;13.70;99.90;;;;;;5149826;27;19923;-87
2021/08/02 03:51:35;;;;;;;;;;;13.70;99.90;;;;;;5145644;27;19923;-87
2021/08/02 03:54:02;;;;;;;;;;;13.70;99.90;;;;;;5148598;27;19972;-87
2021/08/02 03:56:28;;;;;;;;;;;13.60;99.90;;;;;;5149864;27;19935;-87
2021/08/02 03:58:53;;;;;;;;;;;13.60;99.90;;;;;;5150053;27;20492;-87
2021/08/02 04:01:19;;;;;;;;;;;13.60;99.90;;;;;;5149285;27;19950;-87
2021/08/02 04:03:45;;;;;;;;;;;13.50;99.90;;;;;;5150391;27;20255;-87
2021/08/02 04:06:10;;;;;;;;;;;13.50;99.90;;;;;;5149369;27;19929;-87
2021/08/02 04:08:36;;;;;;;;;;;13.50;99.90;;;;;;5132227;27;19922;-86
2021/08/02 04:11:02;;;;;;;;;;;13.40;99.90;;;;;;5149347;27;19927;-87
2021/08/02 04:13:30;;;;;;;;;;;13.40;99.90;;;;;;5150377;27;19926;-87
2021/08/02 04:15:56;;;;;;;;;;;13.40;99.90;;;;;;5115945;27;19923;-88
2021/08/02 04:18:21;;;;;;;;;;;13.40;99.90;;;;;;5129040;27;19991;-87
2021/08/02 04:20:47;;;;;;;;;;;13.40;99.90;;;;;;5129806;27;20323;-87
2021/08/02 04:23:13;;;;;;;;;;;13.40;99.90;;;;;;5112678;27;19966;-87
2021/08/02 04:25:39;;;;;;;;;;;13.40;99.90;;;;;;5142008;27;20606;-87
2021/08/02 04:28:17;;;;;;;;;;;13.40;99.90;;;;;;5151623;27;20209;-87
2021/08/02 04:30:43;;;;;;;;;;;13.40;99.90;;;;;;5116648;27;20678;-87
2021/08/02 04:33:09;;;;;;;;;;;13.40;99.90;;;;;;5128937;27;19948;-87
2021/08/02 04:35:34;;;;;;;;;;;13.40;99.90;;;;;;5129269;27;19919;-87
2021/08/02 04:38:00;;;;;;;;;;;13.40;99.90;;;;;;5147142;27;20343;-87
2021/08/02 04:40:26;;;;;;;;;;;13.40;99.90;;;;;;5128526;27;20160;-87
2021/08/02 04:42:51;;;;;;;;;;;13.40;99.90;;;;;;5137263;27;19923;-87
2021/08/02 04:45:17;;;;;;;;;;;13.40;99.90;;;;;;5112209;27;20297;-85
2021/08/02 04:47:43;;;;;;;;;;;13.50;99.90;;;;;;5112140;27;19925;-87
2021/08/02 04:50:09;;;;;;;;;;;13.50;99.90;;;;;;5111152;27;19958;-87
2021/08/02 04:52:35;;;;;;;;;;;13.60;99.90;;;;;;5141552;27;19979;-86
2021/08/02 04:55:05;;;;;;;;;;;13.60;99.90;;;;;;5128208;27;20628;-85
2021/08/02 05:00:53;;;;;;;;;;;13.70;99.90;;;;;;5161127;27;20006;-85
2021/08/02 05:03:18;;;;;;;;;;;13.80;99.90;;;;;;5148935;27;20355;-86
2021/08/02 05:05:44;;;;;;;;;;;13.80;99.90;;;;;;5149506;27;19915;-87
2021/08/02 05:08:10;;;;;;;;;;;13.90;99.90;;;;;;5167533;27;19991;-86
2021/08/02 05:10:35;;;;;;;;;;;13.90;99.90;;;;;;5131539;27;19987;-87
2021/08/02 05:13:01;;;;;;;;;;;13.90;99.90;;;;;;5136530;27;19945;-87
2021/08/02 05:15:26;;;;;;;;;;;13.90;99.90;;;;;;5128569;27;19926;-87
2021/08/02 05:17:52;;;;;;;;;;;14.00;99.90;;;;;;5128601;27;19950;-87
2021/08/02 05:20:19;;;;;;;;;;;14.10;99.90;;;;;;5128240;27;20437;-86
2021/08/02 05:22:45;;;;;;;;;;;14.20;99.90;;;;;;5110366;27;19927;-86
2021/08/02 05:25:11;;;;;;;;;;;14.20;99.90;;;;;;5127771;27;19930;-87
2021/08/02 05:27:37;;;;;;;;;;;14.30;99.90;;;;;;5111191;27;19923;-87
2021/08/02 05:30:03;;;;;;;;;;;14.40;99.90;;;;;;5128306;27;19919;-87
2021/08/02 05:32:29;;;;;;;;;;;14.50;99.90;;;;;;5146105;27;19927;-86
2021/08/02 05:34:55;;;;;;;;;;;14.50;99.90;;;;;;5128473;27;20334;-86
2021/08/02 05:37:20;;;;;;;;;;;14.60;99.90;;;;;;5128091;27;19959;-87
2021/08/02 05:39:46;;;;;;;;;;;14.60;99.90;;;;;;5128211;27;19923;-86
2021/08/02 05:42:11;;;;;;;;;;;14.70;99.90;;;;;;5127776;27;19930;-88
2021/08/02 05:44:37;;;;;;;;;;;14.80;99.90;;;;;;5111149;27;19919;-87
2021/08/02 05:47:04;;;;;;;;;;;14.80;99.90;;;;;;5128802;27;19923;-87
2021/08/02 05:49:30;;;;;;;;;;;14.80;99.90;;;;;;5128183;27;19974;-87
2021/08/02 05:51:58;;;;;;;;;;;14.90;99.90;;;;;;5113572;27;19927;-87
2021/08/02 05:54:24;;;;;;;;;;;14.90;99.90;;;;;;5127903;27;19930;-87
2021/08/02 05:56:50;;;;;;;;;;;15.00;99.90;;;;;;5128306;27;19923;-87
2021/08/02 05:59:16;;;;;;;;;;;15.00;99.90;;;;;;5146591;27;20293;-87
2021/08/02 06:01:42;;;;;;;;;;;15.10;99.90;;;;;;5146738;27;19927;-87
2021/08/02 06:04:07;;;;;;;;;;;15.10;99.90;;;;;;5148675;27;19919;-87
2021/08/02 06:06:33;;;;;;;;;;;15.20;99.90;;;;;;5131807;27;19929;-87
2021/08/02 06:08:58;;;;;;;;;;;15.20;99.90;;;;;;5114851;27;19923;-87
2021/08/02 06:11:44;;;;;;;;;;;15.20;99.90;;;;;;5120835;27;19931;-88
2021/08/02 06:14:10;;;;;;;;;;;15.20;99.90;;;;;;5130931;27;19933;-87
2021/08/02 06:16:35;;;;;;;;;;;15.30;99.90;;;;;;5115145;27;20002;-87
2021/08/02 06:19:01;;;;;;;;;;;15.30;99.90;;;;;;5131054;27;19923;-87
2021/08/02 06:21:27;;;;;;;;;;;15.30;99.90;;;;;;5114076;27;19971;-87
2021/08/02 06:23:53;;;;;;;;;;;15.30;99.90;;;;;;5149693;27;19927;-88
2021/08/02 06:26:19;;;;;;;;;;;15.40;99.90;;;;;;5131264;27;20021;-87
2021/08/02 06:28:45;;;;;;;;;;;15.40;99.90;;;;;;5150298;27;19919;-86
2021/08/02 06:31:11;;;;;;;;;;;15.40;99.90;;;;;;5114359;27;19926;-86
2021/08/02 06:33:37;;;;;;;;;;;15.40;99.90;;;;;;5130745;27;20389;-87
2021/08/02 06:36:03;;;;;;;;;;;15.40;99.90;;;;;;5114304;27;19962;-88
2021/08/02 06:38:32;;;;;;;;;;;15.30;99.90;;;;;;5131160;27;20393;-87
2021/08/02 06:40:58;;;;;;;;;;;15.40;99.90;;;;;;5149185;27;20420;-87
2021/08/02 06:43:24;;;;;;;;;;;15.30;99.90;;;;;;5117579;27;19918;-86
2021/08/02 06:45:49;;;;;;;;;;;15.30;99.90;;;;;;5134123;27;19967;-87
2021/08/02 06:48:15;;;;;;;;;;;15.40;99.90;;;;;;5153249;27;19944;-87
2021/08/02 06:50:41;;;;;;;;;;;15.50;99.90;;;;;;5148320;27;20026;-87
2021/08/02 06:53:06;;;;;;;;;;;15.60;99.90;;;;;;5131051;27;19927;-87
2021/08/02 06:55:32;;;;;;;;;;;15.70;99.90;;;;;;5130567;27;19948;-89
2021/08/02 06:57:58;;;;;;;;;;;15.80;99.90;;;;;;5132167;27;20018;-88
2021/08/02 07:00:24;;;;;;;;;;;16.00;99.90;;;;;;5114637;27;20356;-90
2021/08/02 07:02:50;;;;;;;;;;;16.00;99.90;;;;;;5114645;27;19987;-90
2021/08/02 07:05:15;;;;;;;;;;;16.10;99.90;;;;;;5113440;27;19968;-87
2021/08/02 07:07:41;;;;;;;;;;;16.10;99.90;;;;;;5130783;27;20381;-87
2021/08/02 07:10:07;;;;;;;;;;;16.10;99.90;;;;;;5130511;27;19931;-87
2021/08/02 07:12:33;;;;;;;;;;;16.10;99.90;;;;;;5129784;27;19918;-88
2021/08/02 07:14:59;;;;;;;;;;;16.20;99.90;;;;;;5129386;27;19930;-87
2021/08/02 07:17:25;;;;;;;;;;;16.20;99.90;;;;;;5149556;27;20471;-87
2021/08/02 07:19:50;;;;;;;;;;;16.30;99.90;;;;;;5130517;27;19964;-87
2021/08/02 07:22:16;;;;;;;;;;;16.30;99.90;;;;;;5149316;27;20000;-87
2021/08/02 07:24:42;;;;;;;;;;;16.40;99.90;;;;;;5111526;27;19958;-88
2021/08/02 07:27:07;;;;;;;;;;;16.40;99.90;;;;;;5129925;27;20386;-87
2021/08/02 07:29:33;;;;;;;;;;;16.50;99.90;;;;;;5146010;27;20476;-87
2021/08/02 07:31:59;;;;;;;;;;;16.60;99.90;;;;;;5129667;27;19925;-87
2021/08/02 07:34:24;;;;;;;;;;;16.60;99.90;;;;;;5148414;27;19923;-87
2021/08/02 07:36:50;;;;;;;;;;;16.70;99.90;;;;;;5147653;27;20370;-87
2021/08/02 07:39:16;;;;;;;;;;;16.60;99.90;;;;;;5130016;27;19923;-87
2021/08/02 07:41:41;;;;;;;;;;;16.60;99.90;;;;;;5114578;27;20461;-88
2021/08/02 07:44:07;;;;;;;;;;;16.60;99.90;;;;;;5129713;27;20397;-87
2021/08/02 07:46:33;;;;;;;;;;;16.60;99.90;;;;;;5147699;27;20343;-87
2021/08/02 07:48:58;;;;;;;;;;;16.60;99.90;;;;;;5148341;27;19937;-87
2021/08/02 07:51:24;;;;;;;;;;;16.60;99.90;;;;;;5128409;27;19959;-87
2021/08/02 07:53:50;;;;;;;;;;;16.60;99.90;;;;;;5147936;27;19942;-88
2021/08/02 07:56:15;;;;;;;;;;;16.70;99.90;;;;;;5128817;27;19926;-86
2021/08/02 07:58:41;;;;;;;;;;;16.70;99.90;;;;;;5129462;27;19931;-87
2021/08/02 08:01:07;;;;;;;;;;;16.80;99.90;;;;;;5128878;27;20440;-87
2021/08/02 08:03:33;;;;;;;;;;;16.80;99.90;;;;;;5129638;27;19923;-87
2021/08/02 08:05:58;;;;;;;;;;;16.80;99.90;;;;;;5128533;27;19954;-87
2021/08/02 08:08:24;;;;;;;;;;;16.80;99.90;;;;;;5147195;27;19929;-87
2021/08/02 08:10:50;;;;;;;;;;;16.70;99.90;;;;;;5129115;27;19919;-87
2021/08/02 08:13:16;;;;;;;;;;;16.70;99.90;;;;;;5130563;27;19969;-85
2021/08/02 08:15:41;;;;;;;;;;;16.70;99.90;;;;;;5149579;27;19976;-87
2021/08/02 08:18:07;;;;;;;;;;;16.60;99.90;;;;;;5128793;27;19930;-87
2021/08/02 08:20:33;;;;;;;;;;;16.50;99.90;;;;;;5136684;27;19926;-87
2021/08/02 08:22:58;;;;;;;;;;;16.40;99.90;;;;;;5128998;27;20246;-87
2021/08/02 08:25:24;;;;;;;;;;;16.30;99.90;;;;;;5128506;27;20025;-87
2021/08/02 08:27:50;;;;;;;;;;;16.30;99.90;;;;;;5127193;27;19923;-87
2021/08/02 08:30:16;;;;;;;;;;;16.30;99.90;;;;;;5146908;27;20440;-86
2021/08/02 08:32:42;;;;;;;;;;;16.30;99.90;;;;;;5122870;27;19931;-87
2021/08/02 08:35:09;;;;;;;;;;;16.30;99.90;;;;;;5147064;27;19929;-87
2021/08/02 08:37:35;;;;;;;;;;;16.30;99.90;;;;;;5128176;27;20389;-87
2021/08/02 08:40:01;;;;;;;;;;;16.30;99.90;;;;;;5147374;27;19925;-87
2021/08/02 08:42:27;;;;;;;;;;;16.30;99.90;;;;;;5120209;27;19930;-87
2021/08/02 08:44:53;;;;;;;;;;;16.40;99.90;;;;;;5144422;27;20348;-87
2021/08/02 08:47:18;;;;;;;;;;;16.60;99.90;;;;;;5112670;27;19923;-87
2021/08/02 08:49:46;;;;;;;;;;;16.60;99.90;;;;;;5146510;27;19927;-87
2021/08/02 08:52:13;;;;;;;;;;;16.70;99.90;;;;;;5138942;27;20026;-87
2021/08/02 08:54:42;;;;;;;;;;;16.70;99.90;;;;;;5148773;27;20349;-87
2021/08/02 08:57:11;;;;;;;;;;;16.70;99.90;;;;;;5114360;27;20411;-87
2021/08/02 08:59:44;;;;;;;;;;;16.80;99.90;;;;;;5126774;27;20169;-87
2021/08/02 09:02:10;;;;;;;;;;;17.00;99.90;;;;;;5117455;27;19947;-87
2021/08/02 09:04:36;;;;;;;;;;;17.20;99.90;;;;;;5146801;27;19972;-87
2021/08/02 09:07:04;;;;;;;;;;;17.30;99.90;;;;;;5128660;27;19923;-86
2021/08/02 09:09:32;;;;;;;;;;;17.40;99.90;;;;;;5148470;27;20014;-87
2021/08/02 09:12:06;;;;;;;;;;;17.20;99.90;;;;;;5148900;27;20491;-87
2021/08/02 09:14:31;;;;;;;;;;;17.10;99.90;;;;;;5135812;27;20019;-87
2021/08/02 09:17:00;;;;;;;;;;;17.00;99.90;;;;;;5144832;27;19987;-89
2021/08/02 09:19:39;;;;;;;;;;;16.90;99.90;;;;;;5131570;27;20495;-88
2021/08/02 09:22:05;;;;;;;;;;;16.80;99.90;;;;;;5167938;27;20398;-88
2021/08/02 09:24:32;;;;;;;;;;;16.90;99.90;;;;;;5136174;27;19923;-87
2021/08/02 09:26:58;;;;;;;;;;;17.00;99.90;;;;;;5127796;27;19927;-87
2021/08/02 09:29:34;;;;;;;;;;;17.10;99.90;;;;;;5127522;27;20014;-87
2021/08/02 09:32:00;;;;;;;;;;;17.10;99.90;;;;;;5129720;27;20022;-88
2021/08/02 09:34:26;;;;;;;;;;;17.20;99.90;;;;;;5167551;27;19922;-86
2021/08/02 09:36:57;;;;;;;;;;;17.20;99.90;;;;;;5167289;27;19991;-87
2021/08/02 09:39:27;;;;;;;;;;;17.30;99.90;;;;;;5151768;27;19923;-87
2021/08/02 09:42:00;;;;;;;;;;;17.40;99.90;;;;;;5171577;27;20532;-87
2021/08/02 09:44:26;;;;;;;;;;;17.20;99.90;;;;;;5171517;27;19973;-87
2021/08/02 09:46:59;;;;;;;;;;;17.20;99.90;;;;;;5119885;27;20350;-87
2021/08/02 09:49:25;;;;;;;;;;;17.10;99.90;;;;;;5131245;27;19969;-87
2021/08/02 09:51:51;;;;;;;;;;;17.00;99.90;;;;;;5117195;27;20004;-87
2021/08/02 09:54:24;;;;;;;;;;;17.10;99.90;;;;;;5164224;27;20317;-87
2021/08/02 09:56:51;;;;;;;;;;;17.10;99.90;;;;;;5152658;27;19923;-87
2021/08/02 09:59:16;;;;;;;;;;;17.20;99.90;;;;;;5170862;27;19999;-88
2021/08/02 10:01:43;;;;;;;;;;;17.20;99.90;;;;;;5151922;27;19934;-86
2021/08/02 10:04:12;;;;;;;;;;;17.20;99.90;;;;;;5125423;27;19923;-87
2021/08/02 10:06:37;;;;;;;;;;;17.10;99.90;;;;;;5131524;27;19970;-87
2021/08/02 10:09:03;;;;;;;;;;;17.10;99.90;;;;;;5131778;27;20013;-87
2021/08/02 10:11:31;;;;;;;;;;;17.00;99.90;;;;;;5114669;27;19929;-89
2021/08/02 10:13:56;;;;;;;;;;;16.80;99.90;;;;;;5158310;27;20158;-89
2021/08/02 10:16:26;;;;;;;;;;;16.70;99.90;;;;;;5151953;27;19929;-88
2021/08/02 10:18:52;;;;;;;;;;;16.60;99.90;;;;;;5153138;27;19996;-87
2021/08/02 10:21:19;;;;;;;;;;;16.40;99.90;;;;;;5148765;27;19950;-87
2021/08/02 10:23:44;;;;;;;;;;;16.40;99.90;;;;;;5131393;27;19923;-87
2021/08/02 10:26:29;;;;;;;;;;;16.40;99.90;;;;;;5131007;27;19930;-87
2021/08/02 10:28:59;;;;;;;;;;;16.40;99.90;;;;;;5149598;27;20394;-87
2021/08/02 10:31:26;;;;;;;;;;;16.60;99.90;;;;;;5130056;27;19923;-87
2021/08/02 10:33:52;;;;;;;;;;;16.70;99.90;;;;;;5131239;27;19926;-87
2021/08/02 10:36:19;;;;;;;;;;;16.80;99.90;;;;;;5121295;27;20293;-87
2021/08/02 10:38:46;;;;;;;;;;;16.90;99.90;;;;;;5125179;27;19919;-87
2021/08/02 10:41:32;;;;;;;;;;;17.00;99.90;;;;;;5130298;27;19926;-87
2021/08/02 10:43:58;;;;;;;;;;;17.20;99.90;;;;;;5130561;27;19923;-87
2021/08/02 10:46:25;;;;;;;;;;;17.20;99.90;;;;;;5160435;27;20383;-87
2021/08/02 10:48:52;;;;;;;;;;;17.30;99.90;;;;;;5151657;27;19919;-87
2021/08/02 10:51:19;;;;;;;;;;;17.20;99.90;;;;;;5165618;27;19931;-87
2021/08/02 10:53:57;;;;;;;;;;;17.30;99.90;;;;;;5130189;27;19926;-87
2021/08/02 10:56:23;;;;;;;;;;;17.40;99.90;;;;;;5130411;27;20386;-87
2021/08/02 10:58:50;;;;;;;;;;;17.50;99.90;;;;;;5130861;27;20457;-87
2021/08/02 11:01:16;;;;;;;;;;;17.60;99.90;;;;;;5168285;27;19923;-88
2021/08/02 11:03:42;;;;;;;;;;;17.60;99.90;;;;;;5150917;27;19932;-87
2021/08/02 11:06:12;;;;;;;;;;;17.80;99.90;;;;;;5151131;27;20209;-87
2021/08/02 11:08:42;;;;;;;;;;;17.80;99.90;;;;;;5151169;27;19926;-88
2021/08/02 11:11:09;;;;;;;;;;;17.90;99.90;;;;;;5169630;27;19976;-87
2021/08/02 11:13:34;;;;;;;;;;;17.80;99.90;;;;;;5145551;27;19923;-86
2021/08/02 11:16:00;;;;;;;;;;;17.80;99.90;;;;;;5130246;27;19930;-87
2021/08/02 11:18:26;;;;;;;;;;;17.70;99.90;;;;;;5149063;27;20349;-88
2021/08/02 11:20:53;;;;;;;;;;;17.60;99.90;;;;;;5130142;27;20058;-87
2021/08/02 11:23:28;;;;;;;;;;;17.60;99.90;;;;;;5129627;27;19923;-87
2021/08/02 11:26:03;;;;;;;;;;;17.60;99.90;;;;;;5137487;27;19946;-87
2021/08/02 11:28:35;;;;;;;;;;;17.60;99.90;;;;;;5169473;27;19971;-88
2021/08/02 11:31:01;;;;;;;;;;;17.60;99.90;;;;;;5150681;27;19953;-87
2021/08/02 11:33:31;;;;;;;;;;;17.50;99.90;;;;;;5128754;27;19950;-87
2021/08/02 11:35:56;;;;;;;;;;;17.50;99.90;;;;;;5112735;27;19923;-87
2021/08/02 11:38:32;;;;;;;;;;;17.60;99.90;;;;;;5148325;27;19930;-87
2021/08/02 11:40:58;;;;;;;;;;;17.50;99.90;;;;;;5129279;27;19991;-87
2021/08/02 11:43:23;;;;;;;;;;;17.60;99.90;;;;;;5128581;27;19962;-87
2021/08/02 11:45:49;;;;;;;;;;;17.70;99.90;;;;;;5115918;27;19919;-87
2021/08/02 11:48:15;;;;;;;;;;;17.70;99.90;;;;;;5129670;27;20076;-87
2021/08/02 11:50:40;;;;;;;;;;;17.60;99.90;;;;;;5147859;27;20366;-87
2021/08/02 11:53:09;;;;;;;;;;;17.30;99.90;;;;;;5147156;27;20258;-87
2021/08/02 11:55:35;;;;;;;;;;;17.30;99.90;;;;;;5113374;27;20298;-87
2021/08/02 11:58:03;;;;;;;;;;;17.10;99.90;;;;;;5129514;27;20339;-87
2021/08/02 12:00:28;;;;;;;;;;;16.70;99.90;;;;;;5121195;27;19927;-87
2021/08/02 12:03:04;;;;;;;;;;;16.20;99.90;;;;;;5124516;27;19926;-88
2021/08/02 12:05:30;;;;;;;;;;;16.00;99.90;;;;;;5151276;27;19922;-87
2021/08/02 12:08:06;;;;;;;;;;;15.80;99.90;;;;;;5150072;27;19925;-87
2021/08/02 12:10:32;;;;;;;;;;;15.50;99.90;;;;;;5149642;27;19922;-88
2021/08/02 12:13:04;;;;;;;;;;;15.40;99.90;;;;;;5149831;27;20261;-87
2021/08/02 12:15:31;;;;;;;;;;;15.30;99.90;;;;;;5147168;27;20400;-87
2021/08/02 12:17:57;;;;;;;;;;;15.20;99.90;;;;;;5129117;27;19927;-87
2021/08/02 12:20:33;;;;;;;;;;;15.30;99.90;;;;;;5147506;27;20223;-87
2021/08/02 12:22:59;;;;;;;;;;;15.30;99.90;;;;;;5147491;27;19930;-87
2021/08/02 12:25:35;;;;;;;;;;;15.40;99.90;;;;;;5128140;27;19923;-87
2021/08/02 12:28:01;;;;;;;;;;;15.60;99.90;;;;;;5128924;27;19964;-87
2021/08/02 12:30:27;;;;;;;;;;;15.60;99.90;;;;;;5120177;27;20003;-87
2021/08/02 12:32:53;;;;;;;;;;;15.60;99.90;;;;;;5147042;27;20241;-87
2021/08/02 12:35:19;;;;;;;;;;;15.70;99.90;;;;;;5126540;27;20055;-87
2021/08/02 12:37:45;;;;;;;;;;;15.70;99.90;;;;;;5128094;27;19923;-86
2021/08/02 12:40:12;;;;;;;;;;;15.80;99.90;;;;;;5128531;27;19998;-86
2021/08/02 12:42:45;;;;;;;;;;;15.90;99.90;;;;;;5128574;27;19946;-87
2021/08/02 12:45:12;;;;;;;;;;;16.00;99.90;;;;;;5128250;27;20343;-87
2021/08/02 12:47:38;;;;;;;;;;;16.10;99.90;;;;;;5133771;27;20308;-87
2021/08/02 12:50:04;;;;;;;;;;;16.10;99.90;;;;;;5149080;27;19926;-87
2021/08/02 12:52:30;;;;;;;;;;;16.20;99.90;;;;;;5135597;27;19927;-87
2021/08/02 12:54:57;;;;;;;;;;;16.20;99.90;;;;;;5146997;27;19929;-87
2021/08/02 12:57:26;;;;;;;;;;;16.20;99.90;;;;;;5130508;27;19923;-87
2021/08/02 13:00:01;;;;;;;;;;;16.20;99.90;;;;;;5124905;27;20010;-86
2021/08/02 13:02:30;;;;;;;;;;;16.20;99.90;;;;;;5127809;27;19929;-87
2021/08/02 13:04:56;;;;;;;;;;;16.20;99.90;;;;;;5110987;27;19923;-86
2021/08/02 13:07:23;;;;;;;;;;;16.30;99.90;;;;;;5147895;27;20465;-87
2021/08/02 13:09:50;;;;;;;;;;;16.30;99.90;;;;;;5167496;27;19922;-87
2021/08/02 13:12:16;;;;;;;;;;;16.30;99.90;;;;;;5167081;27;19997;-87
2021/08/02 13:14:42;;;;;;;;;;;16.30;99.90;;;;;;5153399;27;19923;-87
2021/08/02 13:17:07;;;;;;;;;;;16.30;99.90;;;;;;5127534;27;20349;-86
2021/08/02 13:19:33;;;;;;;;;;;16.30;99.90;;;;;;5128282;27;20017;-87
2021/08/02 13:21:59;;;;;;;;;;;16.30;99.90;;;;;;5127830;27;19921;-87
2021/08/02 13:27:09;;;;;;;;;;;16.30;99.90;;;;;;5130312;27;20293;-88
2021/08/02 13:29:36;;;;;;;;;;;16.40;99.90;;;;;;5127275;27;19919;-87
2021/08/02 13:32:03;;;;;;;;;;;16.50;99.90;;;;;;5128236;27;19980;-87
2021/08/02 13:34:29;;;;;;;;;;;16.60;99.90;;;;;;5146049;27;20379;-87
2021/08/02 13:36:56;;;;;;;;;;;16.70;99.90;;;;;;5128207;27;19923;-87
2021/08/02 13:39:22;;;;;;;;;;;16.80;99.90;;;;;;5127009;27;20420;-87
2021/08/02 13:41:47;;;;;;;;;;;16.80;99.90;;;;;;5128155;27;20014;-86
2021/08/02 13:44:13;;;;;;;;;;;16.90;99.90;;;;;;5100841;27;20483;-87
2021/08/02 13:46:39;;;;;;;;;;;16.90;99.90;;;;;;5127997;27;19923;-87
2021/08/02 13:49:05;;;;;;;;;;;17.00;99.90;;;;;;5124662;27;19980;-87
2021/08/02 13:51:32;;;;;;;;;;;17.00;99.90;;;;;;5150977;27;19923;-87
2021/08/02 13:53:58;;;;;;;;;;;17.10;99.90;;;;;;5148667;27;19923;-87
2021/08/02 13:56:24;;;;;;;;;;;17.20;99.90;;;;;;5148473;27;19923;-86
2021/08/02 13:58:49;;;;;;;;;;;17.20;99.90;;;;;;5148041;27;20408;-87
2021/08/02 14:01:15;;;;;;;;;;;17.20;99.90;;;;;;5147955;27;20400;-87
2021/08/02 14:03:41;;;;;;;;;;;17.30;99.90;;;;;;5127653;27;20410;-86
2021/08/02 14:06:06;;;;;;;;;;;17.30;99.90;;;;;;5116616;27;20464;-87
2021/08/02 14:08:33;;;;;;;;;;;17.30;99.90;;;;;;5127265;27;19950;-87
2021/08/02 14:11:01;;;;;;;;;;;17.40;99.90;;;;;;5144527;27;20472;-87
2021/08/02 14:13:31;;;;;;;;;;;17.50;99.90;;;;;;5144737;27;19927;-87
2021/08/02 14:15:59;;;;;;;;;;;17.50;99.90;;;;;;5127738;27;19930;-87
2021/08/02 14:18:31;;;;;;;;;;;17.50;99.90;;;;;;5129072;27;19923;-87
2021/08/02 14:20:57;;;;;;;;;;;17.50;99.90;;;;;;5145847;27;20465;-88
2021/08/02 14:23:23;;;;;;;;;;;17.60;99.90;;;;;;5127729;27;20260;-87